< < Back
Terminal Aerodrome Forecast


Current Version              Previous Versions:   1  2  3  4  5  6  7  8  9  

Terminal Aerodrome Forecast

918
FTUS42 KGSP 311739
TAFGSP
TAF
KGSP 311739Z 3118/0118 24005KT P6SM SCT050 BKN120
     FM312300 29005KT P6SM BKN050
     FM010400 32009KT P6SM OVC040
     FM010900 32010G18KT P6SM VCSH OVC030
     FM011100 32011G19KT 6SM -SHRA BR OVC025
     FM011300 33016G28KT 5SM -SHRASN BR OVC020=

Latest METAR

250
SAUS70 KWBC 311800
MTRGSP
METAR KGSP 311753Z VRB04KT 10SM CLR 15/08 A2984 RMK AO2 SLP103 T01500078
10150 20072 58030


USA.gov is the U.S. government's official web portal to all federal, state and local government web resources and services.